createdAt,value
2018-05-11T00:00:51.533Z,9.96
2018-05-11T00:01:51.786Z,9.97
2018-05-11T00:02:51.776Z,9.96
2018-05-11T00:03:51.478Z,9.97
2018-05-11T00:04:51.455Z,10.04
2018-05-11T00:05:51.449Z,9.94
2018-05-11T00:06:51.896Z,9.94
2018-05-11T00:07:51.877Z,9.85
2018-05-11T00:08:51.132Z,9.86
2018-05-11T00:09:51.115Z,9.82
2018-05-11T00:10:51.365Z,9.93
2018-05-11T00:11:51.606Z,9.91
2018-05-11T00:12:51.596Z,9.86
2018-05-11T00:13:51.317Z,9.83
2018-05-11T00:14:51.038Z,9.78
2018-05-11T00:15:51.296Z,9.75
2018-05-11T00:16:51.271Z,9.73
2018-05-11T00:17:51.516Z,9.73
2018-05-11T00:18:51.500Z,9.71
2018-05-11T00:19:51.214Z,9.73
2018-05-11T00:20:51.476Z,9.71
2018-05-11T00:21:51.190Z,9.78
2018-05-11T00:22:51.177Z,9.7
2018-05-11T00:23:50.882Z,9.66
2018-05-11T00:24:51.412Z,9.68
2018-05-11T00:25:51.117Z,9.67
2018-05-11T00:26:51.099Z,9.63
2018-05-11T00:27:51.354Z,9.67
2018-05-11T00:28:51.065Z,9.57
2018-05-11T00:29:51.057Z,9.63
2018-05-11T00:30:50.769Z,9.6
2018-05-11T00:31:51.288Z,9.58
2018-05-11T00:32:51.292Z,9.66
2018-05-11T00:33:51.255Z,9.53
2018-05-11T00:34:50.704Z,9.58
2018-05-11T00:35:51.224Z,9.53
2018-05-11T00:36:51.220Z,9.61
2018-05-11T00:37:50.659Z,9.53
2018-05-11T00:38:51.169Z,9.53
2018-05-11T00:39:50.892Z,9.57
2018-05-11T00:40:51.136Z,9.57
2018-05-11T00:41:51.124Z,9.5
2018-05-11T00:42:51.108Z,9.43
2018-05-11T00:43:50.820Z,9.43
2018-05-11T00:44:51.073Z,9.46
2018-05-11T00:45:50.788Z,9.42
2018-05-11T00:46:50.774Z,9.43
2018-05-11T00:47:50.757Z,9.43
2018-05-11T00:48:50.749Z,9.45
2018-05-11T00:49:50.723Z,9.48
2018-05-11T00:50:50.713Z,9.58
2018-05-11T00:51:50.959Z,9.57
2018-05-11T00:52:50.941Z,9.58
2018-05-11T00:53:50.924Z,9.52
2018-05-11T00:54:50.908Z,9.58
2018-05-11T00:55:50.636Z,9.56
2018-05-11T00:56:50.885Z,9.52
2018-05-11T00:57:50.854Z,9.56
2018-05-11T00:58:50.854Z,9.6
2018-05-11T00:59:50.822Z,9.52
2018-05-11T01:00:50.556Z,9.58
2018-05-11T01:01:50.798Z,9.48
2018-05-11T01:02:50.510Z,9.56
2018-05-11T01:03:50.759Z,9.45
2018-05-11T01:04:50.474Z,9.46
2018-05-11T01:05:50.462Z,9.46
2018-05-11T01:06:50.446Z,9.45
2018-05-11T01:07:50.428Z,9.35
2018-05-11T01:08:50.411Z,9.43
2018-05-11T01:09:50.669Z,9.38
2018-05-11T01:10:50.650Z,9.4
2018-05-11T01:11:50.664Z,9.48
2018-05-11T01:12:50.429Z,9.39
2018-05-11T01:13:50.329Z,9.39
2018-05-11T01:14:50.045Z,9.48
2018-05-11T01:15:50.032Z,9.4
2018-05-11T01:16:50.320Z,9.42
2018-05-11T01:17:50.265Z,9.43
2018-05-11T01:18:50.245Z,9.43
2018-05-11T01:19:50.225Z,9.34
2018-05-11T01:20:49.943Z,9.4
2018-05-11T01:21:50.456Z,9.46
2018-05-11T01:22:49.911Z,9.39
2018-05-11T01:23:50.426Z,9.42
2018-05-11T01:24:50.141Z,9.45
2018-05-11T01:25:50.392Z,9.46
2018-05-11T01:26:50.117Z,9.4
2018-05-11T01:27:50.369Z,9.39
2018-05-11T01:28:50.083Z,9.4
2018-05-11T01:29:49.797Z,9.42
2018-05-11T01:30:50.043Z,9.46
2018-05-11T01:31:50.294Z,9.43
2018-05-11T01:32:50.274Z,9.43
2018-05-11T01:33:50.265Z,9.45
2018-05-11T01:34:49.723Z,9.56
2018-05-11T01:35:50.233Z,9.57
2018-05-11T01:36:49.957Z,9.57
2018-05-11T01:37:49.664Z,9.64
2018-05-11T01:38:49.910Z,9.61
2018-05-11T01:39:49.971Z,9.58
2018-05-11T01:40:49.884Z,9.67
2018-05-11T01:41:49.600Z,9.63
2018-05-11T01:42:50.112Z,9.67
2018-05-11T01:43:49.566Z,9.6
2018-05-11T01:44:49.812Z,9.66
2018-05-11T01:45:49.797Z,9.6
2018-05-11T01:46:50.048Z,9.64
2018-05-11T01:47:49.761Z,9.58
2018-05-11T01:48:49.855Z,9.58
2018-05-11T01:49:49.734Z,9.61
2018-05-11T01:50:49.980Z,9.5
2018-05-11T01:51:49.709Z,9.52
2018-05-11T01:52:49.692Z,9.56
2018-05-11T01:53:49.662Z,9.61
2018-05-11T01:54:49.918Z,9.46
2018-05-11T01:55:49.629Z,9.45
2018-05-11T01:56:49.619Z,9.43
2018-05-11T01:57:49.330Z,9.4
2018-05-11T01:58:49.580Z,9.45
2018-05-11T01:59:49.297Z,9.38
2018-05-11T02:00:49.550Z,9.35
2018-05-11T02:01:49.533Z,9.39
2018-05-11T02:02:49.787Z,9.4
2018-05-11T02:03:49.230Z,9.42
2018-05-11T02:04:49.750Z,9.4
2018-05-11T02:05:49.203Z,9.35
2018-05-11T02:06:49.651Z,9.34
2018-05-11T02:07:49.438Z,9.32
2018-05-11T02:08:49.673Z,9.27
2018-05-11T02:09:49.663Z,9.3
2018-05-11T02:10:49.382Z,9.32
2018-05-11T02:11:49.628Z,9.28
2018-05-11T02:12:49.619Z,9.3
2018-05-11T02:13:49.591Z,9.25
2018-05-11T02:14:49.314Z,9.3
2018-05-11T02:15:49.308Z,9.2
2018-05-11T02:16:49.556Z,9.2
2018-05-11T02:17:49.266Z,9.2
2018-05-11T02:18:49.253Z,9.13
2018-05-11T02:19:49.493Z,9.18
2018-05-11T02:20:49.219Z,9.16
2018-05-11T02:21:49.465Z,9.23
2018-05-11T02:22:49.448Z,9.12
2018-05-11T02:23:48.907Z,9.12
2018-05-11T02:24:49.416Z,9.06
2018-05-11T02:25:49.247Z,9.1
2018-05-11T02:26:49.130Z,9.06
2018-05-11T02:27:49.102Z,9.04
2018-05-11T02:28:48.820Z,9.04
2018-05-11T02:29:48.806Z,9.13
2018-05-11T02:30:49.051Z,9.05
2018-05-11T02:31:49.047Z,9.15
2018-05-11T02:32:49.017Z,8.99
2018-05-11T02:33:48.733Z,9.02
2018-05-11T02:34:48.986Z,8.94
2018-05-11T02:35:48.697Z,8.99
2018-05-11T02:36:49.224Z,8.93
2018-05-11T02:37:48.668Z,8.91
2018-05-11T02:38:48.915Z,8.94
2018-05-11T02:39:48.904Z,8.9
2018-05-11T02:40:48.883Z,8.93
2018-05-11T02:41:49.136Z,8.91
2018-05-11T02:42:48.850Z,8.83
2018-05-11T02:43:49.094Z,8.87
2018-05-11T02:44:49.091Z,8.84
2018-05-11T02:45:49.058Z,8.88
2018-05-11T02:46:48.788Z,8.81
2018-05-11T02:47:49.048Z,8.78
2018-05-11T02:48:49.016Z,8.72
2018-05-11T02:49:48.996Z,8.75
2018-05-11T02:50:49.290Z,8.73
2018-05-11T02:51:48.691Z,8.71
2018-05-11T02:52:48.944Z,8.57
2018-05-11T02:53:48.933Z,8.62
2018-05-11T02:54:48.655Z,8.69
2018-05-11T02:55:48.627Z,8.63
2018-05-11T02:56:48.676Z,8.65
2018-05-11T02:57:48.916Z,8.71
2018-05-11T02:58:48.578Z,8.72
2018-05-11T02:59:48.572Z,8.63
2018-05-11T03:00:48.274Z,8.57
2018-05-11T03:01:48.532Z,8.54
2018-05-11T03:02:48.519Z,8.63
2018-05-11T03:03:48.769Z,8.58
2018-05-11T03:04:48.740Z,8.73
2018-05-11T03:05:48.453Z,8.69
2018-05-11T03:06:48.176Z,8.71
2018-05-11T03:07:48.426Z,8.66
2018-05-11T03:08:48.403Z,8.58
2018-05-11T03:09:48.116Z,8.69
2018-05-11T03:10:48.635Z,8.75
2018-05-11T03:11:48.371Z,8.68
2018-05-11T03:12:48.609Z,8.63
2018-05-11T03:13:48.322Z,8.69
2018-05-11T03:14:48.306Z,8.73
2018-05-11T03:15:48.018Z,8.75
2018-05-11T03:16:48.633Z,8.66
2018-05-11T03:17:48.246Z,8.68
2018-05-11T03:18:48.032Z,8.71
2018-05-11T03:19:48.213Z,8.55
2018-05-11T03:20:48.200Z,8.58
2018-05-11T03:21:48.520Z,8.55
2018-05-11T03:22:48.158Z,8.63
2018-05-11T03:23:48.155Z,8.6
2018-05-11T03:24:47.860Z,8.57
2018-05-11T03:25:48.105Z,8.63
2018-05-11T03:26:48.098Z,8.54
2018-05-11T03:27:48.072Z,8.51
2018-05-11T03:28:48.323Z,8.57
2018-05-11T03:29:48.045Z,8.51
2018-05-11T03:30:48.298Z,8.55
2018-05-11T03:31:47.761Z,8.54
2018-05-11T03:32:48.256Z,8.51
2018-05-11T03:33:47.973Z,8.51
2018-05-11T03:34:47.688Z,8.44
2018-05-11T03:35:47.934Z,8.48
2018-05-11T03:36:48.190Z,8.47
2018-05-11T03:37:47.902Z,8.35
2018-05-11T03:38:47.617Z,8.47
2018-05-11T03:39:47.869Z,8.35
2018-05-11T03:40:47.853Z,8.42
2018-05-11T03:41:47.835Z,8.39
2018-05-11T03:42:47.815Z,8.39
2018-05-11T03:43:48.063Z,8.39
2018-05-11T03:44:47.520Z,8.4
2018-05-11T03:45:48.043Z,8.39
2018-05-11T03:46:47.746Z,8.48
2018-05-11T03:47:48.060Z,8.45
2018-05-11T03:48:47.993Z,8.53
2018-05-11T03:49:47.698Z,8.53
2018-05-11T03:50:47.673Z,8.54
2018-05-11T03:51:47.665Z,8.54
2018-05-11T03:52:47.643Z,8.51
2018-05-11T03:53:47.892Z,8.57
2018-05-11T03:54:47.893Z,8.6
2018-05-11T03:55:47.589Z,8.58
2018-05-11T03:56:47.574Z,8.62
2018-05-11T03:57:47.556Z,8.68
2018-05-11T03:58:47.551Z,8.69
2018-05-11T03:59:47.800Z,8.73
2018-05-11T04:00:47.245Z,8.73
2018-05-11T04:01:47.226Z,8.72
2018-05-11T04:02:47.205Z,8.75
2018-05-11T04:03:47.457Z,8.86
2018-05-11T04:04:47.442Z,8.79
2018-05-11T04:05:47.156Z,8.88
2018-05-11T04:06:47.612Z,8.91
2018-05-11T04:07:47.675Z,8.9
2018-05-11T04:08:47.381Z,8.96
2018-05-11T04:09:47.352Z,8.97
2018-05-11T04:10:47.617Z,9.02
2018-05-11T04:11:47.318Z,9.12
2018-05-11T04:12:47.298Z,9.12
2018-05-11T04:13:47.021Z,9.13
2018-05-11T04:14:47.272Z,9.21
2018-05-11T04:15:47.250Z,9.27
2018-05-11T04:16:47.501Z,9.28
2018-05-11T04:17:47.216Z,9.3
2018-05-11T04:18:46.933Z,9.34
2018-05-11T04:19:47.185Z,9.43
2018-05-11T04:20:47.601Z,9.4
2018-05-11T04:21:47.152Z,9.46
2018-05-11T04:22:47.135Z,9.4
2018-05-11T04:23:47.378Z,9.4
2018-05-11T04:24:46.834Z,9.52
2018-05-11T04:25:47.424Z,9.56
2018-05-11T04:26:47.328Z,9.58
2018-05-11T04:27:47.313Z,9.57
2018-05-11T04:28:47.066Z,9.6
2018-05-11T04:29:47.285Z,9.6
2018-05-11T04:30:47.261Z,9.67
2018-05-11T04:31:46.983Z,9.75
2018-05-11T04:32:47.237Z,9.78
2018-05-11T04:33:46.952Z,9.81
2018-05-11T04:34:46.930Z,9.83
2018-05-11T04:35:46.917Z,9.88
2018-05-11T04:36:46.894Z,9.91
2018-05-11T04:37:47.148Z,9.94
2018-05-11T04:38:46.871Z,10.03
2018-05-11T04:39:47.118Z,9.97
2018-05-11T04:40:46.831Z,10
2018-05-11T04:41:46.554Z,10.01
2018-05-11T04:42:46.798Z,10.03
2018-05-11T04:43:46.779Z,10.12
2018-05-11T04:44:47.031Z,10.07
2018-05-11T04:45:47.019Z,10.03
2018-05-11T04:46:46.997Z,10.15
2018-05-11T04:47:46.992Z,10.14
2018-05-11T04:48:46.728Z,10.21
2018-05-11T04:49:46.692Z,10.24
2018-05-11T04:50:46.676Z,10.22
2018-05-11T04:51:46.919Z,10.32
2018-05-11T04:52:46.634Z,10.33
2018-05-11T04:53:46.623Z,10.4
2018-05-11T04:54:46.877Z,10.33
2018-05-11T04:55:46.867Z,10.36
2018-05-11T04:56:46.840Z,10.44
2018-05-11T04:57:46.554Z,10.51
2018-05-11T04:58:46.548Z,10.55
2018-05-11T04:59:46.789Z,10.47
2018-05-11T05:00:46.771Z,10.7
2018-05-11T05:01:46.754Z,10.7
2018-05-11T05:02:46.747Z,10.76
2018-05-11T05:03:46.727Z,10.7
2018-05-11T05:04:46.441Z,10.7
2018-05-11T05:05:46.160Z,10.76
2018-05-11T05:06:46.417Z,10.78
2018-05-11T05:07:46.406Z,10.88
2018-05-11T05:08:46.382Z,10.98
2018-05-11T05:09:46.365Z,10.95
2018-05-11T05:10:46.350Z,10.95
2018-05-11T05:11:46.333Z,11.01
2018-05-11T05:12:46.334Z,11.03
2018-05-11T05:13:46.577Z,11.07
2018-05-11T05:14:46.293Z,11.03
2018-05-11T05:15:46.538Z,11.11
2018-05-11T05:16:46.521Z,11.09
2018-05-11T05:17:46.517Z,11.1
2018-05-11T05:18:46.525Z,11.06
2018-05-11T05:19:45.939Z,11.13
2018-05-11T05:20:46.193Z,11.21
2018-05-11T05:21:46.178Z,11.21
2018-05-11T05:22:46.158Z,11.17
2018-05-11T05:23:46.151Z,11.2
2018-05-11T05:24:46.136Z,11.27
2018-05-11T05:25:46.120Z,11.29
2018-05-11T05:26:46.386Z,11.34
2018-05-11T05:27:46.346Z,11.32
2018-05-11T05:28:46.080Z,11.28
2018-05-11T05:29:46.053Z,11.36
2018-05-11T05:30:46.307Z,11.34
2018-05-11T05:31:46.293Z,11.36
2018-05-11T05:32:46.269Z,11.41
2018-05-11T05:33:45.723Z,11.43
2018-05-11T05:34:45.977Z,11.47
2018-05-11T05:35:45.693Z,11.53
2018-05-11T05:36:45.678Z,11.53
2018-05-11T05:37:46.196Z,11.5
2018-05-11T05:38:45.912Z,11.54
2018-05-11T05:39:46.168Z,11.52
2018-05-11T05:40:45.622Z,11.53
2018-05-11T05:41:45.602Z,11.54
2018-05-11T05:42:45.869Z,11.65
2018-05-11T05:43:45.582Z,11.68
2018-05-11T05:44:45.824Z,11.72
2018-05-11T05:45:45.889Z,11.82
2018-05-11T05:46:45.542Z,11.85
2018-05-11T05:47:45.511Z,11.82
2018-05-11T05:48:46.035Z,11.87
2018-05-11T05:49:45.485Z,11.9
2018-05-11T05:50:45.736Z,11.89
2018-05-11T05:51:46.008Z,11.94
2018-05-11T05:52:45.972Z,12.05
2018-05-11T05:53:45.703Z,12.12
2018-05-11T05:54:45.407Z,12.09
2018-05-11T05:55:45.652Z,12.08
2018-05-11T05:56:45.919Z,12.2
2018-05-11T05:57:45.373Z,12.16
2018-05-11T05:58:45.877Z,12.16
2018-05-11T05:59:45.873Z,12.23
2018-05-11T06:00:45.317Z,12.21
2018-05-11T06:01:45.568Z,12.26
2018-05-11T06:02:45.551Z,12.34
2018-05-11T06:03:45.270Z,12.41
2018-05-11T06:04:45.260Z,12.38
2018-05-11T06:05:45.515Z,12.39
2018-05-11T06:06:45.232Z,12.39
2018-05-11T06:07:45.685Z,12.38
2018-05-11T06:08:45.733Z,12.41
2018-05-11T06:09:45.722Z,12.39
2018-05-11T06:10:45.204Z,12.38
2018-05-11T06:11:45.689Z,12.48
2018-05-11T06:12:45.228Z,12.49
2018-05-11T06:13:45.392Z,12.48
2018-05-11T06:14:45.120Z,12.51
2018-05-11T06:15:45.817Z,12.57
2018-05-11T06:16:45.353Z,12.66
2018-05-11T06:17:45.546Z,12.64
2018-05-11T06:18:45.321Z,12.66
2018-05-11T06:19:45.309Z,12.71
2018-05-11T06:20:45.566Z,12.7
2018-05-11T06:21:45.543Z,12.78
2018-05-11T06:22:45.262Z,12.81
2018-05-11T06:23:45.515Z,12.85
2018-05-11T06:24:45.309Z,12.87
2018-05-11T06:25:45.221Z,12.88
2018-05-11T06:26:45.488Z,12.87
2018-05-11T06:27:45.458Z,12.89
2018-05-11T06:28:45.530Z,12.88
2018-05-11T06:29:45.434Z,12.79
2018-05-11T06:30:45.157Z,12.89
2018-05-11T06:31:45.141Z,12.88
2018-05-11T06:32:45.390Z,12.87
2018-05-11T06:33:45.111Z,12.87
2018-05-11T06:34:45.356Z,12.92
2018-05-11T06:35:44.818Z,12.87
2018-05-11T06:36:45.073Z,12.88
2018-05-11T06:37:45.053Z,12.88
2018-05-11T06:38:45.039Z,12.87
2018-05-11T06:39:45.287Z,12.85
2018-05-11T06:40:45.404Z,12.79
2018-05-11T06:41:45.001Z,12.85
2018-05-11T06:42:44.984Z,12.81
2018-05-11T06:43:44.971Z,12.85
2018-05-11T06:44:45.223Z,12.95
2018-05-11T06:45:44.936Z,12.88
2018-05-11T06:46:45.191Z,12.93
2018-05-11T06:47:44.911Z,12.97
2018-05-11T06:48:45.164Z,12.88
2018-05-11T06:49:45.154Z,12.84
2018-05-11T06:50:45.150Z,12.78
2018-05-11T06:51:44.856Z,12.96
2018-05-11T06:52:44.847Z,12.93
2018-05-11T06:53:45.089Z,13
2018-05-11T06:54:44.813Z,13.04
2018-05-11T06:55:44.849Z,13
2018-05-11T06:56:45.135Z,13.07
2018-05-11T06:57:44.505Z,13.12
2018-05-11T06:58:45.023Z,13.12
2018-05-11T06:59:45.003Z,13.2
2018-05-11T07:00:44.733Z,13.22
2018-05-11T07:01:44.448Z,13.24
2018-05-11T07:02:44.703Z,13.25
2018-05-11T07:03:44.689Z,13.24
2018-05-11T07:04:44.944Z,13.33
2018-05-11T07:05:44.403Z,13.29
2018-05-11T07:06:44.379Z,13.33
2018-05-11T07:07:44.792Z,13.36
2018-05-11T07:08:44.620Z,13.38
2018-05-11T07:09:44.608Z,13.36
2018-05-11T07:10:44.597Z,13.4
2018-05-11T07:11:44.846Z,13.41
2018-05-11T07:12:44.831Z,13.41
2018-05-11T07:13:44.551Z,13.43
2018-05-11T07:14:44.540Z,13.44
2018-05-11T07:15:44.729Z,13.46
2018-05-11T07:16:44.516Z,13.46
2018-05-11T07:17:44.231Z,13.41
2018-05-11T07:18:44.225Z,13.54
2018-05-11T07:19:44.499Z,13.69
2018-05-11T07:20:44.743Z,13.67
2018-05-11T07:21:44.458Z,13.54
2018-05-11T07:22:44.710Z,13.63
2018-05-11T07:23:44.418Z,13.56
2018-05-11T07:24:44.153Z,13.58
2018-05-11T07:25:44.899Z,13.69
2018-05-11T07:26:44.656Z,13.73
2018-05-11T07:27:44.375Z,13.67
2018-05-11T07:28:44.619Z,13.87
2018-05-11T07:29:44.080Z,13.74
2018-05-11T07:30:44.599Z,13.76
2018-05-11T07:31:44.326Z,13.79
2018-05-11T07:32:44.309Z,13.81
2018-05-11T07:33:44.291Z,13.81
2018-05-11T07:34:44.552Z,13.89
2018-05-11T07:35:44.532Z,13.74
2018-05-11T07:36:44.252Z,13.83
2018-05-11T07:37:44.506Z,13.84
2018-05-11T07:38:44.226Z,13.83
2018-05-11T07:39:44.481Z,13.96
2018-05-11T07:40:44.291Z,13.92
2018-05-11T07:41:43.933Z,13.83
2018-05-11T07:42:44.179Z,13.83
2018-05-11T07:43:44.168Z,13.83
2018-05-11T07:44:44.164Z,13.81
2018-05-11T07:45:43.875Z,13.79
2018-05-11T07:46:44.392Z,13.8
2018-05-11T07:47:43.850Z,13.83
2018-05-11T07:48:44.384Z,13.87
2018-05-11T07:49:44.363Z,13.83
2018-05-11T07:50:44.082Z,13.91
2018-05-11T07:51:44.498Z,13.83
2018-05-11T07:52:44.050Z,13.91
2018-05-11T07:53:44.042Z,13.89
2018-05-11T07:54:44.033Z,13.94
2018-05-11T07:55:44.029Z,13.96
2018-05-11T07:56:44.270Z,13.87
2018-05-11T07:57:44.262Z,13.83
2018-05-11T07:58:43.711Z,13.83
2018-05-11T07:59:44.236Z,13.96
2018-05-11T08:00:44.257Z,13.94
2018-05-11T08:01:43.677Z,14.04
2018-05-11T08:02:43.667Z,14.09
2018-05-11T08:03:43.658Z,14.12
2018-05-11T08:04:43.641Z,14.19
2018-05-11T08:05:43.898Z,14.09
2018-05-11T08:06:43.885Z,14.21
2018-05-11T08:07:44.072Z,14.21
2018-05-11T08:08:43.595Z,14.37
2018-05-11T08:09:44.117Z,14.46
2018-05-11T08:10:43.835Z,14.5
2018-05-11T08:11:44.108Z,14.56
2018-05-11T08:12:43.812Z,14.6
2018-05-11T08:13:43.801Z,14.52
2018-05-11T08:14:43.797Z,14.49
2018-05-11T08:15:43.517Z,14.69
2018-05-11T08:16:43.803Z,14.65
2018-05-11T08:17:43.759Z,14.84
2018-05-11T08:18:43.751Z,15.2
2018-05-11T08:19:43.737Z,15.54
2018-05-11T08:20:43.727Z,16.07
2018-05-11T08:21:43.714Z,16.37
2018-05-11T08:22:44.008Z,16.44
2018-05-11T08:23:43.964Z,16.7
2018-05-11T08:24:43.941Z,16.74
2018-05-11T08:25:43.935Z,17.23
2018-05-11T08:26:43.785Z,17.71
2018-05-11T08:27:43.652Z,18.07
2018-05-11T08:28:43.636Z,18.28
2018-05-11T08:29:43.366Z,18.64
2018-05-11T08:30:43.889Z,18.77
2018-05-11T08:31:43.605Z,19.02
2018-05-11T08:32:43.862Z,19.02
2018-05-11T08:33:43.866Z,18.92
2018-05-11T08:34:43.844Z,18.77
2018-05-11T08:35:43.922Z,18.59
2018-05-11T08:36:43.558Z,18.55
2018-05-11T08:37:43.551Z,18.39
2018-05-11T08:38:43.807Z,18.13
2018-05-11T08:39:43.551Z,18.06
2018-05-11T08:40:43.525Z,17.78
2018-05-11T08:41:43.790Z,17.48
2018-05-11T08:42:43.773Z,17.33
2018-05-11T08:43:43.712Z,17.2
2018-05-11T08:44:43.484Z,17.07
2018-05-11T08:45:43.746Z,17.04
2018-05-11T08:46:43.744Z,17.03
2018-05-11T08:47:43.723Z,16.98
2018-05-11T08:48:43.185Z,17.13
2018-05-11T08:49:43.176Z,17.08
2018-05-11T08:50:43.690Z,17
2018-05-11T08:51:43.421Z,16.93
2018-05-11T08:52:43.410Z,17
2018-05-11T08:53:43.398Z,16.96
2018-05-11T08:54:43.400Z,16.93
2018-05-11T08:55:43.388Z,16.78
2018-05-11T08:56:43.638Z,16.88
2018-05-11T08:57:43.624Z,16.93
2018-05-11T08:58:43.353Z,17.06
2018-05-11T08:59:43.350Z,17.03
2018-05-11T09:00:43.600Z,16.99
2018-05-11T09:01:43.586Z,16.92
2018-05-11T09:02:43.586Z,17
2018-05-11T09:03:43.305Z,16.89
2018-05-11T09:04:43.243Z,16.86
2018-05-11T09:05:43.551Z,16.85
2018-05-11T09:06:43.287Z,16.89
2018-05-11T09:07:43.276Z,16.81
2018-05-11T09:08:43.389Z,16.81
2018-05-11T09:09:43.270Z,16.81
2018-05-11T09:10:43.510Z,16.77
2018-05-11T09:11:43.222Z,16.68
2018-05-11T09:12:43.483Z,16.65
2018-05-11T09:13:43.483Z,16.58
2018-05-11T09:14:43.462Z,16.56
2018-05-11T09:15:42.929Z,16.59
2018-05-11T09:16:43.188Z,16.52
2018-05-11T09:17:42.901Z,16.62
2018-05-11T09:18:43.159Z,16.77
2018-05-11T09:19:43.153Z,16.75
2018-05-11T09:20:43.409Z,16.9
2018-05-11T09:21:43.426Z,16.96
2018-05-11T09:22:43.116Z,17.14
2018-05-11T09:23:42.840Z,17.13
2018-05-11T09:24:43.366Z,17.1
2018-05-11T09:25:43.369Z,17.2
2018-05-11T09:26:43.085Z,17.33
2018-05-11T09:27:43.345Z,17.28
2018-05-11T09:28:43.332Z,17.17
2018-05-11T09:29:43.058Z,17.11
2018-05-11T09:30:43.057Z,17.1
2018-05-11T09:31:42.825Z,16.98
2018-05-11T09:32:43.029Z,16.98
2018-05-11T09:33:43.282Z,17.07
2018-05-11T09:34:42.735Z,17.2
2018-05-11T09:35:43.001Z,17.33
2018-05-11T09:36:43.305Z,17.38
2018-05-11T09:37:43.238Z,17.35
2018-05-11T09:38:42.974Z,17.48
2018-05-11T09:39:43.187Z,17.64
2018-05-11T09:40:42.686Z,17.69
2018-05-11T09:41:42.946Z,17.73
2018-05-11T09:42:43.207Z,17.84
2018-05-11T09:43:42.921Z,17.76
2018-05-11T09:44:42.651Z,17.81
2018-05-11T09:45:42.641Z,17.81
2018-05-11T09:46:42.631Z,17.87
2018-05-11T09:47:43.155Z,17.74
2018-05-11T09:48:43.154Z,17.73
2018-05-11T09:49:43.143Z,17.73
2018-05-11T09:50:43.126Z,17.81
2018-05-11T09:51:42.860Z,17.85
2018-05-11T09:52:42.858Z,17.89
2018-05-11T09:53:42.574Z,17.89
2018-05-11T09:54:42.826Z,18.02
2018-05-11T09:55:42.816Z,18.03
2018-05-11T09:56:43.077Z,18.13
2018-05-11T09:57:42.800Z,18.12
2018-05-11T09:58:42.796Z,18.39
2018-05-11T09:59:42.786Z,18.42
2018-05-11T10:00:43.124Z,18.46
2018-05-11T10:01:42.861Z,18.49
2018-05-11T10:02:42.493Z,18.52
2018-05-11T10:03:42.754Z,18.5
2018-05-11T10:04:43.020Z,18.44
2018-05-11T10:05:42.476Z,18.34
2018-05-11T10:06:42.994Z,18.29
2018-05-11T10:07:43.210Z,18.34
2018-05-11T10:08:42.712Z,18.39
2018-05-11T10:09:42.439Z,18.46
2018-05-11T10:10:42.694Z,18.64
2018-05-11T10:11:42.697Z,18.59
2018-05-11T10:12:42.417Z,18.54
2018-05-11T10:13:42.936Z,18.43
2018-05-11T10:14:42.933Z,18.39
2018-05-11T10:15:42.930Z,18.52
2018-05-11T10:16:42.923Z,18.65
2018-05-11T10:17:42.652Z,18.58
2018-05-11T10:18:42.907Z,18.62
2018-05-11T10:19:42.891Z,18.57
2018-05-11T10:20:42.959Z,18.64
2018-05-11T10:21:42.611Z,18.77
2018-05-11T10:22:42.343Z,18.79
2018-05-11T10:23:42.603Z,18.84
2018-05-11T10:24:42.329Z,19.02
2018-05-11T10:25:42.580Z,19.32
2018-05-11T10:26:42.840Z,19.78
2018-05-11T10:27:42.845Z,19.98
2018-05-11T10:28:42.643Z,20.46
2018-05-11T10:29:42.835Z,20.8
2018-05-11T10:30:42.571Z,21.08
2018-05-11T10:31:42.559Z,21.56
2018-05-11T10:32:42.282Z,21.88
2018-05-11T10:33:42.823Z,22.35
2018-05-11T10:34:42.815Z,22.54
2018-05-11T10:35:42.283Z,22.44
2018-05-11T10:36:42.543Z,22.35
2018-05-11T10:37:42.544Z,22.56
2018-05-11T10:38:42.552Z,22.87
2018-05-11T10:39:42.544Z,23.32
2018-05-11T10:40:42.814Z,23.6
2018-05-11T10:41:42.798Z,23.72
2018-05-11T10:42:42.796Z,23.77
2018-05-11T10:43:42.802Z,24.14
2018-05-11T10:44:42.533Z,24.32
2018-05-11T10:45:42.796Z,24.8
2018-05-11T10:46:42.807Z,25.22
2018-05-11T10:47:42.270Z,25.52
2018-05-11T10:48:43.072Z,25.65
2018-05-11T10:49:42.806Z,25.07
2018-05-11T10:50:42.536Z,24.49
2018-05-11T10:51:42.811Z,23.92
2018-05-11T10:52:42.809Z,23.85
2018-05-11T10:53:42.818Z,24.2
2018-05-11T10:54:42.813Z,24.67
2018-05-11T10:55:42.554Z,25.1
2018-05-11T10:56:42.822Z,25.42
2018-05-11T10:57:42.827Z,25.59
2018-05-11T10:58:42.565Z,25.77
2018-05-11T10:59:42.568Z,25.87
2018-05-11T11:00:42.568Z,26.21
2018-05-11T11:01:42.566Z,26.2
2018-05-11T11:02:42.571Z,26.37
2018-05-11T11:03:42.580Z,26.55
2018-05-11T11:04:42.316Z,26.74
2018-05-11T11:05:42.854Z,26.98
2018-05-11T11:06:42.328Z,26.95
2018-05-11T11:07:42.331Z,26.77
2018-05-11T11:08:42.862Z,26.86
2018-05-11T11:09:42.608Z,26.87
2018-05-11T11:10:42.873Z,27.02
2018-05-11T11:11:42.609Z,27.14
2018-05-11T11:12:42.618Z,26.96
2018-05-11T11:13:42.797Z,26.87
2018-05-11T11:14:42.890Z,27.01
2018-05-11T11:15:42.623Z,27.23
2018-05-11T11:16:42.365Z,27.24
2018-05-11T11:17:42.633Z,26.65
2018-05-11T11:18:42.641Z,26.54
2018-05-11T11:19:42.911Z,26.29
2018-05-11T11:20:42.645Z,26.09
2018-05-11T11:21:42.659Z,26.22
2018-05-11T11:22:42.925Z,26.29
2018-05-11T11:23:42.659Z,25.97
2018-05-11T11:24:42.667Z,25.84
2018-05-11T11:25:42.411Z,25.97
2018-05-11T11:26:42.680Z,25.77
2018-05-11T11:27:42.952Z,26.06
2018-05-11T11:28:42.770Z,26.39
2018-05-11T11:29:42.692Z,26.79
2018-05-11T11:30:42.699Z,27.05
2018-05-11T11:31:42.965Z,27.17
2018-05-11T11:32:42.709Z,27.39
2018-05-11T11:33:43.047Z,27.67
2018-05-11T11:34:43.219Z,26.76
2018-05-11T11:35:42.721Z,26.31
2018-05-11T11:36:42.727Z,25.54
2018-05-11T11:37:43.126Z,25.38
2018-05-11T11:38:43.013Z,25.56
2018-05-11T11:39:42.473Z,26.18
2018-05-11T11:40:42.742Z,26.67
2018-05-11T11:41:42.480Z,27.16
2018-05-11T11:42:42.543Z,27.67
2018-05-11T11:43:43.039Z,27.88
2018-05-11T11:44:43.035Z,27.98
2018-05-11T11:45:43.034Z,28.06
2018-05-11T11:46:43.039Z,27.92
2018-05-11T11:47:42.781Z,27.64
2018-05-11T11:48:42.784Z,27.09
2018-05-11T11:49:42.795Z,26.73
2018-05-11T11:50:43.060Z,26.94
2018-05-11T11:51:43.067Z,26.89
2018-05-11T11:52:43.075Z,26.35
2018-05-11T11:53:42.809Z,26.69
2018-05-11T11:54:42.819Z,26.83
2018-05-11T11:55:43.116Z,27.26
2018-05-11T11:56:42.831Z,27.76
2018-05-11T11:57:42.570Z,27.59
2018-05-11T11:58:43.109Z,27.79
2018-05-11T11:59:42.578Z,28.17
2018-05-11T12:00:42.852Z,28.33
2018-05-11T12:01:42.659Z,28.72
2018-05-11T12:02:43.130Z,28.69
2018-05-11T12:03:43.129Z,29.03
2018-05-11T12:04:42.871Z,28.97
2018-05-11T12:05:42.880Z,28.66
2018-05-11T12:06:43.154Z,28.53
2018-05-11T12:07:43.356Z,28.77
2018-05-11T12:08:42.895Z,28.8
2018-05-11T12:09:43.171Z,28.56
2018-05-11T12:10:42.646Z,28.62
2018-05-11T12:11:42.918Z,27.94
2018-05-11T12:12:43.190Z,27.41
2018-05-11T12:13:42.932Z,27.2
2018-05-11T12:14:43.206Z,26.59
2018-05-11T12:15:42.941Z,26.5
2018-05-11T12:16:42.949Z,26.72
2018-05-11T12:17:42.953Z,26.81
2018-05-11T12:18:42.960Z,26.81
2018-05-11T12:19:43.237Z,27.2
2018-05-11T12:20:43.234Z,27.43
2018-05-11T12:21:42.985Z,27.88
2018-05-11T12:22:42.993Z,28.4
2018-05-11T12:23:43.257Z,28.56
2018-05-11T12:24:43.266Z,28.8
2018-05-11T12:25:43.010Z,28.46
2018-05-11T12:26:43.286Z,28.16
2018-05-11T12:27:43.282Z,28.19
2018-05-11T12:28:43.021Z,28.29
2018-05-11T12:29:43.027Z,28.32
2018-05-11T12:30:43.294Z,28.41
2018-05-11T12:31:43.047Z,28.72
2018-05-11T12:32:43.312Z,28.85
2018-05-11T12:33:42.788Z,29.19
2018-05-11T12:34:43.057Z,29.22
2018-05-11T12:35:43.061Z,29.11
2018-05-11T12:36:43.066Z,29.08
2018-05-11T12:37:43.073Z,28.85
2018-05-11T12:38:43.341Z,28.87
2018-05-11T12:39:42.822Z,29.04
2018-05-11T12:40:43.098Z,29.23
2018-05-11T12:41:43.100Z,29.45
2018-05-11T12:42:43.368Z,29.6
2018-05-11T12:43:43.117Z,29.92
2018-05-11T12:44:43.113Z,29.94
2018-05-11T12:45:42.856Z,29.99
2018-05-11T12:46:43.575Z,29.78
2018-05-11T12:47:43.400Z,29.75
2018-05-11T12:48:43.403Z,29.84
2018-05-11T12:49:43.412Z,29.79
2018-05-11T12:50:43.147Z,29.94
2018-05-11T12:51:43.416Z,30
2018-05-11T12:52:43.166Z,29.87
2018-05-11T12:53:43.170Z,29.84
2018-05-11T12:54:43.176Z,29.74
2018-05-11T12:55:43.180Z,29.74
2018-05-11T12:56:43.456Z,29.77
2018-05-11T12:57:42.938Z,29.97
2018-05-11T12:58:43.208Z,30.26
2018-05-11T12:59:43.470Z,30.19
2018-05-11T13:00:43.213Z,29.94
2018-05-11T13:01:43.222Z,30.02
2018-05-11T13:02:43.222Z,29.9
2018-05-11T13:03:43.492Z,29.96
2018-05-11T13:04:43.504Z,29.77